Terminal Aerodrome Forecast
Issued by NWS

Home | Current Version | Previous Version | Text Only | Print | Product List | Glossary On
Versions: 1 2 3 4 5 6 7 8 9 10 11 12 13 14 15 16 17 18 19 20 21 22 23 24
869
FTUS45 KRIW 132339
TAFPNA
TAF
KPNA 132339Z 1400/1424 30018G26KT P6SM SCT050
     FM140200 31014KT P6SM FEW060 BKN200
     FM140700 30007KT P6SM VCSH SCT020 BKN035
     FM141300 22014KT 3SM -SN SCT010 OVC020
      AMD LTD TO CLD VIS AND WIND=

USA.gov is the U.S. government's official web portal to all federal, state and local government web resources and services.